createdAt,value
2022-10-09T17:22:43.965Z,21.50
2022-10-09T17:25:11.082Z,21.50
2022-10-09T17:27:37.900Z,21.40
2022-10-09T17:30:05.292Z,21.40
2022-10-09T17:32:32.188Z,21.40
2022-10-09T17:34:58.947Z,21.40
2022-10-09T17:37:25.795Z,21.30
2022-10-09T17:39:52.666Z,21.40
2022-10-09T17:42:19.444Z,21.30
2022-10-09T17:44:46.228Z,21.30
2022-10-09T17:47:13.172Z,21.30
2022-10-09T17:49:39.927Z,21.30
2022-10-09T17:52:06.736Z,21.30
2022-10-09T17:54:33.644Z,21.30
2022-10-09T17:57:01.372Z,21.30
2022-10-09T17:59:29.296Z,21.30
2022-10-09T18:01:58.893Z,21.20
2022-10-09T18:04:25.859Z,21.20
2022-10-09T18:06:52.681Z,21.20
2022-10-09T18:09:19.508Z,21.20
2022-10-09T18:11:46.295Z,21.20
2022-10-09T18:14:13.145Z,21.10
2022-10-09T18:16:40.758Z,21.10
2022-10-09T18:19:14.559Z,21.10
2022-10-09T18:21:45.028Z,21.00
2022-10-09T18:24:13.317Z,21.00
2022-10-09T18:26:40.608Z,21.00
2022-10-09T18:29:07.846Z,21.00
2022-10-09T18:31:35.106Z,20.90
2022-10-09T18:34:02.265Z,20.90
2022-10-09T18:36:37.506Z,20.90
2022-10-09T18:39:08.029Z,20.90
2022-10-09T18:41:35.546Z,20.80
2022-10-09T18:44:05.758Z,20.80
2022-10-09T18:46:38.015Z,20.90
2022-10-09T18:49:09.523Z,20.80
2022-10-09T18:51:39.300Z,20.80
2022-10-09T18:54:07.531Z,20.80
2022-10-09T18:56:35.391Z,20.80
2022-10-09T18:59:06.885Z,20.70
2022-10-09T19:01:33.862Z,20.70
2022-10-09T19:04:00.725Z,20.70
2022-10-09T19:06:27.608Z,20.70
2022-10-09T19:08:58.247Z,20.70
2022-10-09T19:11:25.226Z,20.70
2022-10-09T19:13:54.123Z,20.70
2022-10-09T19:16:21.946Z,20.70
2022-10-09T19:18:49.977Z,20.70
2022-10-09T19:21:19.168Z,20.70
2022-10-09T19:23:48.390Z,20.70
2022-10-09T19:26:16.655Z,20.70
2022-10-09T19:28:44.468Z,20.70
2022-10-09T19:31:13.405Z,20.70
2022-10-09T19:33:47.089Z,20.60
2022-10-09T19:36:17.786Z,20.70
2022-10-09T19:38:46.088Z,20.70
2022-10-09T19:41:15.921Z,20.70
2022-10-09T19:43:44.502Z,20.70
2022-10-09T19:46:18.528Z,20.70
2022-10-09T19:48:46.291Z,20.70
2022-10-09T19:51:17.120Z,20.70
2022-10-09T19:53:44.962Z,20.70
2022-10-09T19:56:15.226Z,20.70
2022-10-09T19:58:45.053Z,20.60
2022-10-09T20:01:20.262Z,20.50
2022-10-09T20:03:48.033Z,20.40
2022-10-09T20:06:15.779Z,20.40
2022-10-09T20:08:43.142Z,20.30
2022-10-09T20:11:11.885Z,20.40
2022-10-09T20:13:41.122Z,20.30
2022-10-09T20:16:11.654Z,20.30
2022-10-09T20:18:41.120Z,20.30
2022-10-09T20:21:13.351Z,20.30
2022-10-09T20:23:40.542Z,20.20
2022-10-09T20:26:09.786Z,20.20
2022-10-09T20:28:38.076Z,20.20
2022-10-09T20:31:07.866Z,20.10
2022-10-09T20:33:35.843Z,20.10
2022-10-09T20:36:04.289Z,20.20
2022-10-09T20:38:31.254Z,20.20
2022-10-09T20:41:08.377Z,20.20
2022-10-09T20:43:36.415Z,20.20
2022-10-09T20:46:13.271Z,20.20
2022-10-09T20:48:41.374Z,20.20
2022-10-09T20:51:08.444Z,20.20
2022-10-09T20:53:35.534Z,20.20
2022-10-09T20:56:05.054Z,20.20
2022-10-09T20:58:32.185Z,20.10
2022-10-09T21:00:59.111Z,20.10
2022-10-09T21:03:26.241Z,20.10
2022-10-09T21:05:53.160Z,20.00
2022-10-09T21:08:19.967Z,20.00
2022-10-09T21:10:48.969Z,20.10
2022-10-09T21:13:19.089Z,20.10
2022-10-09T21:15:49.177Z,20.10
2022-10-09T21:18:20.230Z,20.10
2022-10-09T21:20:48.389Z,20.10
2022-10-09T21:23:16.761Z,20.10
2022-10-09T21:25:51.394Z,20.00
2022-10-09T21:28:20.391Z,20.00
2022-10-09T21:30:47.457Z,20.00
2022-10-09T21:33:14.959Z,20.00
2022-10-09T21:35:46.838Z,19.90
